sensor_id;sensor_type;location;lat;lon;timestamp;temperature;humidity
3300;DHT22;1662;49.310;8.134;2023-07-09T00:00:26;24.00;99.90
3300;DHT22;1662;49.310;8.134;2023-07-09T00:02:52;24.00;99.90
3300;DHT22;1662;49.310;8.134;2023-07-09T00:05:17;23.90;99.90
3300;DHT22;1662;49.310;8.134;2023-07-09T00:07:44;23.90;99.90
3300;DHT22;1662;49.310;8.134;2023-07-09T00:10:19;23.90;99.90
3300;DHT22;1662;49.310;8.134;2023-07-09T00:12:46;23.90;99.90
3300;DHT22;1662;49.310;8.134;2023-07-09T00:15:13;23.80;99.90
3300;DHT22;1662;49.310;8.134;2023-07-09T00:17:41;23.80;99.90
3300;DHT22;1662;49.310;8.134;2023-07-09T00:20:16;23.70;99.90
3300;DHT22;1662;49.310;8.134;2023-07-09T00:22:43;23.70;99.90
3300;DHT22;1662;49.310;8.134;2023-07-09T00:25:13;23.60;99.90
3300;DHT22;1662;49.310;8.134;2023-07-09T00:27:42;23.60;99.90
3300;DHT22;1662;49.310;8.134;2023-07-09T00:30:22;23.60;99.90
3300;DHT22;1662;49.310;8.134;2023-07-09T00:32:51;23.60;99.90
3300;DHT22;1662;49.310;8.134;2023-07-09T00:35:18;23.50;99.90
3300;DHT22;1662;49.310;8.134;2023-07-09T00:37:45;23.50;99.90
3300;DHT22;1662;49.310;8.134;2023-07-09T00:40:22;23.50;99.90
3300;DHT22;1662;49.310;8.134;2023-07-09T00:42:52;23.50;99.90
3300;DHT22;1662;49.310;8.134;2023-07-09T00:45:26;23.50;99.90
3300;DHT22;1662;49.310;8.134;2023-07-09T00:52:54;23.20;99.90
3300;DHT22;1662;49.310;8.134;2023-07-09T00:55:25;23.20;99.90
3300;DHT22;1662;49.310;8.134;2023-07-09T00:57:56;23.20;99.90
3300;DHT22;1662;49.310;8.134;2023-07-09T01:00:37;23.20;99.90
3300;DHT22;1662;49.310;8.134;2023-07-09T01:03:25;23.20;99.90
3300;DHT22;1662;49.310;8.134;2023-07-09T01:05:54;23.10;99.90
3300;DHT22;1662;49.310;8.134;2023-07-09T01:08:23;23.20;99.90
3300;DHT22;1662;49.310;8.134;2023-07-09T01:10:49;23.20;99.90
3300;DHT22;1662;49.310;8.134;2023-07-09T01:13:15;23.20;99.90
3300;DHT22;1662;49.310;8.134;2023-07-09T01:15:42;23.20;99.90
3300;DHT22;1662;49.310;8.134;2023-07-09T01:18:07;23.30;99.90
3300;DHT22;1662;49.310;8.134;2023-07-09T01:20:37;23.20;99.90
3300;DHT22;1662;49.310;8.134;2023-07-09T01:23:05;23.20;99.90
3300;DHT22;1662;49.310;8.134;2023-07-09T01:25:32;23.00;99.90
3300;DHT22;1662;49.310;8.134;2023-07-09T01:27:59;22.90;99.90
3300;DHT22;1662;49.310;8.134;2023-07-09T01:30:32;22.80;99.90
3300;DHT22;1662;49.310;8.134;2023-07-09T01:33:01;23.50;99.90
3300;DHT22;1662;49.310;8.134;2023-07-09T01:35:28;22.70;99.90
3300;DHT22;1662;49.310;8.134;2023-07-09T01:37:54;22.70;99.90
3300;DHT22;1662;49.310;8.134;2023-07-09T01:40:23;22.70;99.90
3300;DHT22;1662;49.310;8.134;2023-07-09T01:42:50;22.60;99.90
3300;DHT22;1662;49.310;8.134;2023-07-09T01:45:16;22.60;99.90
3300;DHT22;1662;49.310;8.134;2023-07-09T01:47:42;22.60;99.90
3300;DHT22;1662;49.310;8.134;2023-07-09T01:50:10;22.60;99.90
3300;DHT22;1662;49.310;8.134;2023-07-09T01:52:38;22.60;99.90
3300;DHT22;1662;49.310;8.134;2023-07-09T01:55:04;22.60;99.90
3300;DHT22;1662;49.310;8.134;2023-07-09T01:57:33;22.70;99.90
3300;DHT22;1662;49.310;8.134;2023-07-09T02:00:00;22.70;99.90
3300;DHT22;1662;49.310;8.134;2023-07-09T02:02:26;22.70;99.90
3300;DHT22;1662;49.310;8.134;2023-07-09T02:04:54;22.70;99.90
3300;DHT22;1662;49.310;8.134;2023-07-09T02:07:22;22.70;99.90
3300;DHT22;1662;49.310;8.134;2023-07-09T02:09:48;22.60;99.90
3300;DHT22;1662;49.310;8.134;2023-07-09T02:12:15;22.70;99.90
3300;DHT22;1662;49.310;8.134;2023-07-09T02:14:42;22.70;99.90
3300;DHT22;1662;49.310;8.134;2023-07-09T02:17:11;22.70;99.90
3300;DHT22;1662;49.310;8.134;2023-07-09T02:19:37;22.70;99.90
3300;DHT22;1662;49.310;8.134;2023-07-09T02:22:03;22.70;99.90
3300;DHT22;1662;49.310;8.134;2023-07-09T02:24:29;22.70;99.90
3300;DHT22;1662;49.310;8.134;2023-07-09T02:26:55;22.70;99.90
3300;DHT22;1662;49.310;8.134;2023-07-09T02:29:21;22.50;99.90
3300;DHT22;1662;49.310;8.134;2023-07-09T02:31:49;22.40;99.90
3300;DHT22;1662;49.310;8.134;2023-07-09T02:34:15;22.40;99.90
3300;DHT22;1662;49.310;8.134;2023-07-09T02:36:41;22.30;99.90
3300;DHT22;1662;49.310;8.134;2023-07-09T02:39:12;22.30;99.90
3300;DHT22;1662;49.310;8.134;2023-07-09T02:41:39;22.30;99.90
3300;DHT22;1662;49.310;8.134;2023-07-09T02:44:06;22.20;99.90
3300;DHT22;1662;49.310;8.134;2023-07-09T02:46:32;22.20;99.90
3300;DHT22;1662;49.310;8.134;2023-07-09T02:48:58;22.20;99.90
3300;DHT22;1662;49.310;8.134;2023-07-09T02:51:24;22.10;99.90
3300;DHT22;1662;49.310;8.134;2023-07-09T02:53:55;22.00;99.90
3300;DHT22;1662;49.310;8.134;2023-07-09T02:56:21;22.00;99.90
3300;DHT22;1662;49.310;8.134;2023-07-09T02:58:47;21.90;99.90
3300;DHT22;1662;49.310;8.134;2023-07-09T03:01:13;21.90;99.90
3300;DHT22;1662;49.310;8.134;2023-07-09T03:03:39;21.80;99.90
3300;DHT22;1662;49.310;8.134;2023-07-09T03:06:05;21.80;99.90
3300;DHT22;1662;49.310;8.134;2023-07-09T03:08:31;21.70;99.90
3300;DHT22;1662;49.310;8.134;2023-07-09T03:10:58;21.80;99.90
3300;DHT22;1662;49.310;8.134;2023-07-09T03:13:26;21.80;99.90
3300;DHT22;1662;49.310;8.134;2023-07-09T03:15:58;21.70;99.90
3300;DHT22;1662;49.310;8.134;2023-07-09T03:18:24;21.70;99.90
3300;DHT22;1662;49.310;8.134;2023-07-09T03:20:50;21.70;99.90
3300;DHT22;1662;49.310;8.134;2023-07-09T03:23:16;21.70;99.90
3300;DHT22;1662;49.310;8.134;2023-07-09T03:25:43;21.70;99.90
3300;DHT22;1662;49.310;8.134;2023-07-09T03:28:09;21.70;99.90
3300;DHT22;1662;49.310;8.134;2023-07-09T03:30:43;21.70;99.90
3300;DHT22;1662;49.310;8.134;2023-07-09T03:33:10;21.70;99.90
3300;DHT22;1662;49.310;8.134;2023-07-09T03:35:35;21.70;99.90
3300;DHT22;1662;49.310;8.134;2023-07-09T03:38:02;21.90;99.90
3300;DHT22;1662;49.310;8.134;2023-07-09T03:40:28;21.70;99.90
3300;DHT22;1662;49.310;8.134;2023-07-09T03:42:56;21.80;99.90
3300;DHT22;1662;49.310;8.134;2023-07-09T03:45:22;21.80;99.90
3300;DHT22;1662;49.310;8.134;2023-07-09T03:47:48;21.80;99.90
3300;DHT22;1662;49.310;8.134;2023-07-09T03:50:13;21.70;99.90
3300;DHT22;1662;49.310;8.134;2023-07-09T03:52:39;21.60;99.90
3300;DHT22;1662;49.310;8.134;2023-07-09T03:55:05;21.60;99.90
3300;DHT22;1662;49.310;8.134;2023-07-09T03:57:31;21.50;99.90
3300;DHT22;1662;49.310;8.134;2023-07-09T03:59:56;21.50;99.90
3300;DHT22;1662;49.310;8.134;2023-07-09T04:02:22;21.50;99.90
3300;DHT22;1662;49.310;8.134;2023-07-09T04:04:48;21.50;99.90
3300;DHT22;1662;49.310;8.134;2023-07-09T04:07:14;21.50;99.90
3300;DHT22;1662;49.310;8.134;2023-07-09T04:09:40;21.50;99.90
3300;DHT22;1662;49.310;8.134;2023-07-09T04:12:06;21.50;99.90
3300;DHT22;1662;49.310;8.134;2023-07-09T04:14:32;21.50;99.90
3300;DHT22;1662;49.310;8.134;2023-07-09T04:16:58;21.60;99.90
3300;DHT22;1662;49.310;8.134;2023-07-09T04:19:24;21.50;99.90
3300;DHT22;1662;49.310;8.134;2023-07-09T04:21:49;21.60;99.90
3300;DHT22;1662;49.310;8.134;2023-07-09T04:24:17;21.60;99.90
3300;DHT22;1662;49.310;8.134;2023-07-09T04:26:43;21.60;99.90
3300;DHT22;1662;49.310;8.134;2023-07-09T04:29:10;21.60;99.90
3300;DHT22;1662;49.310;8.134;2023-07-09T04:31:35;21.60;99.90
3300;DHT22;1662;49.310;8.134;2023-07-09T04:34:01;21.60;99.90
3300;DHT22;1662;49.310;8.134;2023-07-09T04:36:27;21.60;99.90
3300;DHT22;1662;49.310;8.134;2023-07-09T04:38:52;21.80;99.90
3300;DHT22;1662;49.310;8.134;2023-07-09T04:41:18;21.50;99.90
3300;DHT22;1662;49.310;8.134;2023-07-09T04:43:44;21.50;99.90
3300;DHT22;1662;49.310;8.134;2023-07-09T04:46:09;21.50;99.90
3300;DHT22;1662;49.310;8.134;2023-07-09T04:48:35;21.50;99.90
3300;DHT22;1662;49.310;8.134;2023-07-09T04:51:01;21.50;99.90
3300;DHT22;1662;49.310;8.134;2023-07-09T04:53:26;21.60;99.90
3300;DHT22;1662;49.310;8.134;2023-07-09T04:55:52;21.60;99.90
3300;DHT22;1662;49.310;8.134;2023-07-09T04:58:18;21.60;99.90
3300;DHT22;1662;49.310;8.134;2023-07-09T05:00:44;21.70;99.90
3300;DHT22;1662;49.310;8.134;2023-07-09T05:03:11;21.70;99.90
3300;DHT22;1662;49.310;8.134;2023-07-09T05:05:45;21.80;99.90
3300;DHT22;1662;49.310;8.134;2023-07-09T05:08:13;21.80;99.90
3300;DHT22;1662;49.310;8.134;2023-07-09T05:10:46;21.80;99.90
3300;DHT22;1662;49.310;8.134;2023-07-09T05:13:12;21.90;99.90
3300;DHT22;1662;49.310;8.134;2023-07-09T05:15:42;21.90;99.90
3300;DHT22;1662;49.310;8.134;2023-07-09T05:18:08;22.00;99.90
3300;DHT22;1662;49.310;8.134;2023-07-09T05:20:34;22.00;99.90
3300;DHT22;1662;49.310;8.134;2023-07-09T05:23:00;22.00;99.90
3300;DHT22;1662;49.310;8.134;2023-07-09T05:25:26;22.10;99.90
3300;DHT22;1662;49.310;8.134;2023-07-09T05:27:51;22.10;99.90
3300;DHT22;1662;49.310;8.134;2023-07-09T05:30:18;22.10;99.90
3300;DHT22;1662;49.310;8.134;2023-07-09T05:32:43;22.10;99.90
3300;DHT22;1662;49.310;8.134;2023-07-09T05:35:09;22.20;99.90
3300;DHT22;1662;49.310;8.134;2023-07-09T05:37:37;22.20;99.90
3300;DHT22;1662;49.310;8.134;2023-07-09T05:40:04;22.20;99.90
3300;DHT22;1662;49.310;8.134;2023-07-09T05:42:31;22.20;99.90
3300;DHT22;1662;49.310;8.134;2023-07-09T05:44:57;22.30;99.90
3300;DHT22;1662;49.310;8.134;2023-07-09T05:47:22;22.30;99.90
3300;DHT22;1662;49.310;8.134;2023-07-09T05:49:50;22.30;99.90
3300;DHT22;1662;49.310;8.134;2023-07-09T05:52:17;22.30;99.90
3300;DHT22;1662;49.310;8.134;2023-07-09T05:54:43;22.40;99.90
3300;DHT22;1662;49.310;8.134;2023-07-09T05:57:12;22.40;99.90
3300;DHT22;1662;49.310;8.134;2023-07-09T05:59:37;22.40;99.90
3300;DHT22;1662;49.310;8.134;2023-07-09T06:02:03;22.50;99.90
3300;DHT22;1662;49.310;8.134;2023-07-09T06:04:30;22.50;99.90
3300;DHT22;1662;49.310;8.134;2023-07-09T06:06:58;22.50;99.90
3300;DHT22;1662;49.310;8.134;2023-07-09T06:09:24;22.60;99.90
3300;DHT22;1662;49.310;8.134;2023-07-09T06:11:49;22.60;99.90
3300;DHT22;1662;49.310;8.134;2023-07-09T06:14:18;22.60;99.90
3300;DHT22;1662;49.310;8.134;2023-07-09T06:16:44;22.70;99.90
3300;DHT22;1662;49.310;8.134;2023-07-09T06:19:10;22.70;99.90
3300;DHT22;1662;49.310;8.134;2023-07-09T06:21:36;22.70;99.90
3300;DHT22;1662;49.310;8.134;2023-07-09T06:24:05;22.80;99.90
3300;DHT22;1662;49.310;8.134;2023-07-09T06:26:30;22.80;99.90
3300;DHT22;1662;49.310;8.134;2023-07-09T06:28:56;22.80;99.90
3300;DHT22;1662;49.310;8.134;2023-07-09T06:31:22;22.90;99.90
3300;DHT22;1662;49.310;8.134;2023-07-09T06:33:50;22.90;99.90
3300;DHT22;1662;49.310;8.134;2023-07-09T06:36:17;23.00;99.90
3300;DHT22;1662;49.310;8.134;2023-07-09T06:38:43;23.00;99.90
3300;DHT22;1662;49.310;8.134;2023-07-09T06:41:09;23.10;99.90
3300;DHT22;1662;49.310;8.134;2023-07-09T06:43:36;23.10;99.90
3300;DHT22;1662;49.310;8.134;2023-07-09T06:46:04;23.20;99.90
3300;DHT22;1662;49.310;8.134;2023-07-09T06:48:30;23.20;99.90
3300;DHT22;1662;49.310;8.134;2023-07-09T06:50:57;23.20;99.90
3300;DHT22;1662;49.310;8.134;2023-07-09T06:53:24;23.20;99.90
3300;DHT22;1662;49.310;8.134;2023-07-09T06:55:50;23.30;99.90
3300;DHT22;1662;49.310;8.134;2023-07-09T06:58:19;23.40;99.90
3300;DHT22;1662;49.310;8.134;2023-07-09T07:00:45;23.40;99.90
3300;DHT22;1662;49.310;8.134;2023-07-09T07:03:11;23.40;99.90
3300;DHT22;1662;49.310;8.134;2023-07-09T07:05:37;23.50;99.90
3300;DHT22;1662;49.310;8.134;2023-07-09T07:08:03;23.50;99.90
3300;DHT22;1662;49.310;8.134;2023-07-09T07:10:29;23.50;99.90
3300;DHT22;1662;49.310;8.134;2023-07-09T07:12:55;23.60;99.90
3300;DHT22;1662;49.310;8.134;2023-07-09T07:15:22;23.80;99.90
3300;DHT22;1662;49.310;8.134;2023-07-09T07:17:48;23.80;99.90
3300;DHT22;1662;49.310;8.134;2023-07-09T07:20:14;23.90;99.90
3300;DHT22;1662;49.310;8.134;2023-07-09T07:22:40;23.90;99.90
3300;DHT22;1662;49.310;8.134;2023-07-09T07:25:07;23.90;99.90
3300;DHT22;1662;49.310;8.134;2023-07-09T07:27:34;24.00;99.90
3300;DHT22;1662;49.310;8.134;2023-07-09T07:30:00;24.00;99.90
3300;DHT22;1662;49.310;8.134;2023-07-09T07:32:26;24.10;99.90
3300;DHT22;1662;49.310;8.134;2023-07-09T07:34:52;24.10;99.90
3300;DHT22;1662;49.310;8.134;2023-07-09T07:37:19;24.20;99.90
3300;DHT22;1662;49.310;8.134;2023-07-09T07:39:49;24.20;99.90
3300;DHT22;1662;49.310;8.134;2023-07-09T07:42:15;24.30;99.90
3300;DHT22;1662;49.310;8.134;2023-07-09T07:44:40;24.40;99.90
3300;DHT22;1662;49.310;8.134;2023-07-09T07:47:06;24.60;99.90
3300;DHT22;1662;49.310;8.134;2023-07-09T07:49:32;24.70;99.90
3300;DHT22;1662;49.310;8.134;2023-07-09T07:51:58;24.70;99.90
3300;DHT22;1662;49.310;8.134;2023-07-09T07:54:24;24.80;99.90
3300;DHT22;1662;49.310;8.134;2023-07-09T07:56:49;24.80;99.90
3300;DHT22;1662;49.310;8.134;2023-07-09T07:59:17;24.90;99.90
3300;DHT22;1662;49.310;8.134;2023-07-09T08:01:43;25.00;99.90
3300;DHT22;1662;49.310;8.134;2023-07-09T08:04:09;25.20;99.90
3300;DHT22;1662;49.310;8.134;2023-07-09T08:06:35;25.30;99.90
3300;DHT22;1662;49.310;8.134;2023-07-09T08:09:01;25.40;99.90
3300;DHT22;1662;49.310;8.134;2023-07-09T08:11:26;25.40;99.90
3300;DHT22;1662;49.310;8.134;2023-07-09T08:13:53;25.50;99.90
3300;DHT22;1662;49.310;8.134;2023-07-09T08:16:19;25.60;99.90
3300;DHT22;1662;49.310;8.134;2023-07-09T08:18:44;25.70;99.90
3300;DHT22;1662;49.310;8.134;2023-07-09T08:21:10;25.70;99.90
3300;DHT22;1662;49.310;8.134;2023-07-09T08:23:36;25.80;99.90
3300;DHT22;1662;49.310;8.134;2023-07-09T08:26:05;25.90;99.90
3300;DHT22;1662;49.310;8.134;2023-07-09T08:28:34;26.00;99.90
3300;DHT22;1662;49.310;8.134;2023-07-09T08:31:03;26.10;99.90
3300;DHT22;1662;49.310;8.134;2023-07-09T08:33:30;26.20;99.90
3300;DHT22;1662;49.310;8.134;2023-07-09T08:35:56;26.40;99.90
3300;DHT22;1662;49.310;8.134;2023-07-09T08:38:22;26.50;99.90
3300;DHT22;1662;49.310;8.134;2023-07-09T08:40:59;26.50;99.90
3300;DHT22;1662;49.310;8.134;2023-07-09T08:46:14;26.80;99.90
3300;DHT22;1662;49.310;8.134;2023-07-09T08:48:50;26.90;99.90
3300;DHT22;1662;49.310;8.134;2023-07-09T08:53:58;27.10;99.90
3300;DHT22;1662;49.310;8.134;2023-07-09T08:56:26;27.30;99.90
3300;DHT22;1662;49.310;8.134;2023-07-09T08:58:55;27.40;99.90
3300;DHT22;1662;49.310;8.134;2023-07-09T09:01:46;27.50;99.90
3300;DHT22;1662;49.310;8.134;2023-07-09T09:04:25;27.60;99.90
3300;DHT22;1662;49.310;8.134;2023-07-09T09:07:00;27.80;99.90
3300;DHT22;1662;49.310;8.134;2023-07-09T09:12:38;28.10;99.90
3300;DHT22;1662;49.310;8.134;2023-07-09T09:15:13;28.20;99.90
3300;DHT22;1662;49.310;8.134;2023-07-09T09:17:40;28.30;99.90
3300;DHT22;1662;49.310;8.134;2023-07-09T09:20:19;28.50;99.90
3300;DHT22;1662;49.310;8.134;2023-07-09T09:25:29;28.80;99.90
3300;DHT22;1662;49.310;8.134;2023-07-09T09:27:56;28.90;99.90
3300;DHT22;1662;49.310;8.134;2023-07-09T09:30:24;29.00;99.90
3300;DHT22;1662;49.310;8.134;2023-07-09T09:32:57;29.20;99.90
3300;DHT22;1662;49.310;8.134;2023-07-09T09:35:35;29.40;99.90
3300;DHT22;1662;49.310;8.134;2023-07-09T09:38:02;29.50;99.90
3300;DHT22;1662;49.310;8.134;2023-07-09T09:40:34;29.60;99.90
3300;DHT22;1662;49.310;8.134;2023-07-09T09:43:01;29.70;99.90
3300;DHT22;1662;49.310;8.134;2023-07-09T09:45:33;29.80;99.90
3300;DHT22;1662;49.310;8.134;2023-07-09T09:48:01;30.00;99.90
3300;DHT22;1662;49.310;8.134;2023-07-09T09:50:32;30.20;99.90
3300;DHT22;1662;49.310;8.134;2023-07-09T09:52:59;30.20;99.90
3300;DHT22;1662;49.310;8.134;2023-07-09T09:55:31;30.30;99.90
3300;DHT22;1662;49.310;8.134;2023-07-09T09:57:58;30.50;99.90
3300;DHT22;1662;49.310;8.134;2023-07-09T10:00:28;30.70;99.90
3300;DHT22;1662;49.310;8.134;2023-07-09T10:03:02;30.80;99.90
3300;DHT22;1662;49.310;8.134;2023-07-09T10:05:52;30.80;99.90
3300;DHT22;1662;49.310;8.134;2023-07-09T10:08:50;30.90;99.90
3300;DHT22;1662;49.310;8.134;2023-07-09T10:14:32;31.10;99.90
3300;DHT22;1662;49.310;8.134;2023-07-09T10:20:07;31.30;99.90
3300;DHT22;1662;49.310;8.134;2023-07-09T10:35:32;32.20;99.90
3300;DHT22;1662;49.310;8.134;2023-07-09T10:38:10;32.40;99.90
3300;DHT22;1662;49.310;8.134;2023-07-09T10:40:46;32.60;99.90
3300;DHT22;1662;49.310;8.134;2023-07-09T10:43:32;32.80;99.90
3300;DHT22;1662;49.310;8.134;2023-07-09T10:46:05;33.00;97.90
3300;DHT22;1662;49.310;8.134;2023-07-09T10:48:42;32.90;97.90
3300;DHT22;1662;49.310;8.134;2023-07-09T10:51:21;33.00;98.90
3300;DHT22;1662;49.310;8.134;2023-07-09T10:53:52;33.20;97.10
3300;DHT22;1662;49.310;8.134;2023-07-09T10:56:23;33.40;95.10
3300;DHT22;1662;49.310;8.134;2023-07-09T10:59:01;33.50;94.80
3300;DHT22;1662;49.310;8.134;2023-07-09T11:01:37;33.60;93.50
3300;DHT22;1662;49.310;8.134;2023-07-09T11:04:10;33.70;91.10
3300;DHT22;1662;49.310;8.134;2023-07-09T11:06:40;33.80;91.00
3300;DHT22;1662;49.310;8.134;2023-07-09T11:09:48;33.90;90.70
3300;DHT22;1662;49.310;8.134;2023-07-09T11:12:12;34.00;91.10
3300;DHT22;1662;49.310;8.134;2023-07-09T11:14:47;34.20;90.50
3300;DHT22;1662;49.310;8.134;2023-07-09T11:17:17;34.30;88.40
3300;DHT22;1662;49.310;8.134;2023-07-09T11:19:46;34.40;88.30
3300;DHT22;1662;49.310;8.134;2023-07-09T11:22:23;34.50;88.10
3300;DHT22;1662;49.310;8.134;2023-07-09T11:25:11;34.70;88.30
3300;DHT22;1662;49.310;8.134;2023-07-09T11:28:01;34.90;86.10
3300;DHT22;1662;49.310;8.134;2023-07-09T11:30:28;35.00;85.40
3300;DHT22;1662;49.310;8.134;2023-07-09T11:33:00;35.20;83.20
3300;DHT22;1662;49.310;8.134;2023-07-09T11:35:49;35.40;79.90
3300;DHT22;1662;49.310;8.134;2023-07-09T11:38:18;35.60;79.30
3300;DHT22;1662;49.310;8.134;2023-07-09T11:40:57;35.60;75.90
3300;DHT22;1662;49.310;8.134;2023-07-09T11:45:55;35.90;73.80
3300;DHT22;1662;49.310;8.134;2023-07-09T11:48:25;35.80;73.70
3300;DHT22;1662;49.310;8.134;2023-07-09T11:50:53;35.90;74.10
3300;DHT22;1662;49.310;8.134;2023-07-09T11:53:43;36.10;71.20
3300;DHT22;1662;49.310;8.134;2023-07-09T11:56:10;36.20;70.80
3300;DHT22;1662;49.310;8.134;2023-07-09T11:58:36;36.20;69.80
3300;DHT22;1662;49.310;8.134;2023-07-09T12:01:02;36.30;69.10
3300;DHT22;1662;49.310;8.134;2023-07-09T12:03:37;36.50;67.90
3300;DHT22;1662;49.310;8.134;2023-07-09T12:06:13;36.40;65.60
3300;DHT22;1662;49.310;8.134;2023-07-09T12:08:43;36.50;65.00
3300;DHT22;1662;49.310;8.134;2023-07-09T12:13:46;36.80;65.80
3300;DHT22;1662;49.310;8.134;2023-07-09T12:16:37;37.00;64.70
3300;DHT22;1662;49.310;8.134;2023-07-09T12:19:03;37.20;64.20
3300;DHT22;1662;49.310;8.134;2023-07-09T12:21:31;37.20;64.00
3300;DHT22;1662;49.310;8.134;2023-07-09T12:23:57;37.20;63.30
3300;DHT22;1662;49.310;8.134;2023-07-09T12:26:25;37.20;63.00
3300;DHT22;1662;49.310;8.134;2023-07-09T12:28:57;37.10;62.10
3300;DHT22;1662;49.310;8.134;2023-07-09T12:31:29;37.00;62.40
3300;DHT22;1662;49.310;8.134;2023-07-09T12:33:58;36.90;61.60
3300;DHT22;1662;49.310;8.134;2023-07-09T12:36:25;36.80;62.60
3300;DHT22;1662;49.310;8.134;2023-07-09T12:38:55;36.70;62.30
3300;DHT22;1662;49.310;8.134;2023-07-09T12:41:28;36.70;61.50
3300;DHT22;1662;49.310;8.134;2023-07-09T12:43:55;36.80;62.20
3300;DHT22;1662;49.310;8.134;2023-07-09T12:46:22;36.80;61.30
3300;DHT22;1662;49.310;8.134;2023-07-09T12:48:48;36.70;61.30
3300;DHT22;1662;49.310;8.134;2023-07-09T12:51:21;36.40;62.00
3300;DHT22;1662;49.310;8.134;2023-07-09T12:53:46;36.30;61.40
3300;DHT22;1662;49.310;8.134;2023-07-09T12:56:15;36.40;60.80
3300;DHT22;1662;49.310;8.134;2023-07-09T12:58:42;36.50;61.80
3300;DHT22;1662;49.310;8.134;2023-07-09T13:01:16;36.60;61.40
3300;DHT22;1662;49.310;8.134;2023-07-09T13:03:42;36.70;61.50
3300;DHT22;1662;49.310;8.134;2023-07-09T13:06:35;36.80;61.10
3300;DHT22;1662;49.310;8.134;2023-07-09T13:09:01;37.00;61.60
3300;DHT22;1662;49.310;8.134;2023-07-09T13:11:34;37.10;62.20
3300;DHT22;1662;49.310;8.134;2023-07-09T13:14:11;37.40;60.60
3300;DHT22;1662;49.310;8.134;2023-07-09T13:16:41;37.50;61.70
3300;DHT22;1662;49.310;8.134;2023-07-09T13:19:06;37.50;61.70
3300;DHT22;1662;49.310;8.134;2023-07-09T13:21:38;37.50;61.60
3300;DHT22;1662;49.310;8.134;2023-07-09T13:24:22;37.40;60.50
3300;DHT22;1662;49.310;8.134;2023-07-09T13:26:48;37.10;60.40
3300;DHT22;1662;49.310;8.134;2023-07-09T13:29:15;36.80;61.10
3300;DHT22;1662;49.310;8.134;2023-07-09T13:31:46;36.90;60.90
3300;DHT22;1662;49.310;8.134;2023-07-09T13:36:44;37.00;60.70
3300;DHT22;1662;49.310;8.134;2023-07-09T13:39:13;37.20;60.70
3300;DHT22;1662;49.310;8.134;2023-07-09T13:41:44;37.40;59.60
3300;DHT22;1662;49.310;8.134;2023-07-09T13:44:19;37.60;59.70
3300;DHT22;1662;49.310;8.134;2023-07-09T13:46:45;37.90;59.10
3300;DHT22;1662;49.310;8.134;2023-07-09T13:49:14;38.00;59.40
3300;DHT22;1662;49.310;8.134;2023-07-09T13:51:45;37.90;58.80
3300;DHT22;1662;49.310;8.134;2023-07-09T13:56:40;37.80;58.70
3300;DHT22;1662;49.310;8.134;2023-07-09T13:59:32;37.70;58.50
3300;DHT22;1662;49.310;8.134;2023-07-09T14:01:58;37.70;58.20
3300;DHT22;1662;49.310;8.134;2023-07-09T14:04:26;37.70;58.00
3300;DHT22;1662;49.310;8.134;2023-07-09T14:06:52;37.80;58.80
3300;DHT22;1662;49.310;8.134;2023-07-09T14:09:17;38.20;57.80
3300;DHT22;1662;49.310;8.134;2023-07-09T14:11:49;38.30;58.00
3300;DHT22;1662;49.310;8.134;2023-07-09T14:14:18;38.40;57.40
3300;DHT22;1662;49.310;8.134;2023-07-09T14:16:44;38.40;57.00
3300;DHT22;1662;49.310;8.134;2023-07-09T14:19:18;38.20;57.20
3300;DHT22;1662;49.310;8.134;2023-07-09T14:21:45;38.20;59.60
3300;DHT22;1662;49.310;8.134;2023-07-09T14:24:22;38.30;59.40
3300;DHT22;1662;49.310;8.134;2023-07-09T14:26:52;38.50;58.20
3300;DHT22;1662;49.310;8.134;2023-07-09T14:29:18;38.40;57.30
3300;DHT22;1662;49.310;8.134;2023-07-09T14:31:45;38.40;56.70
3300;DHT22;1662;49.310;8.134;2023-07-09T14:36:39;38.60;57.60
3300;DHT22;1662;49.310;8.134;2023-07-09T14:39:09;38.60;57.00
3300;DHT22;1662;49.310;8.134;2023-07-09T14:41:35;38.40;56.90
3300;DHT22;1662;49.310;8.134;2023-07-09T14:44:01;38.40;57.00
3300;DHT22;1662;49.310;8.134;2023-07-09T14:46:28;38.30;57.10
3300;DHT22;1662;49.310;8.134;2023-07-09T14:48:53;38.20;56.60
3300;DHT22;1662;49.310;8.134;2023-07-09T14:51:19;38.20;56.70
3300;DHT22;1662;49.310;8.134;2023-07-09T14:53:45;38.00;57.90
3300;DHT22;1662;49.310;8.134;2023-07-09T14:56:13;37.90;58.90
3300;DHT22;1662;49.310;8.134;2023-07-09T14:58:41;37.70;57.40
3300;DHT22;1662;49.310;8.134;2023-07-09T15:01:12;37.60;57.60
3300;DHT22;1662;49.310;8.134;2023-07-09T15:03:38;37.40;57.30
3300;DHT22;1662;49.310;8.134;2023-07-09T15:06:04;37.40;57.40
3300;DHT22;1662;49.310;8.134;2023-07-09T15:08:29;37.50;57.10
3300;DHT22;1662;49.310;8.134;2023-07-09T15:10:58;37.60;56.40
3300;DHT22;1662;49.310;8.134;2023-07-09T15:13:32;37.70;56.60
3300;DHT22;1662;49.310;8.134;2023-07-09T15:15:59;37.60;57.20
3300;DHT22;1662;49.310;8.134;2023-07-09T15:18:25;37.60;57.40
3300;DHT22;1662;49.310;8.134;2023-07-09T15:20:54;37.30;57.10
3300;DHT22;1662;49.310;8.134;2023-07-09T15:23:21;37.00;57.90
3300;DHT22;1662;49.310;8.134;2023-07-09T15:25:50;36.80;57.20
3300;DHT22;1662;49.310;8.134;2023-07-09T15:28:17;36.70;57.60
3300;DHT22;1662;49.310;8.134;2023-07-09T15:30:45;36.60;58.40
3300;DHT22;1662;49.310;8.134;2023-07-09T15:33:17;36.40;57.70
3300;DHT22;1662;49.310;8.134;2023-07-09T15:35:44;36.40;57.80
3300;DHT22;1662;49.310;8.134;2023-07-09T15:38:25;36.30;58.00
3300;DHT22;1662;49.310;8.134;2023-07-09T15:40:54;36.20;58.70
3300;DHT22;1662;49.310;8.134;2023-07-09T15:43:19;36.10;58.60
3300;DHT22;1662;49.310;8.134;2023-07-09T15:45:48;36.10;59.00
3300;DHT22;1662;49.310;8.134;2023-07-09T15:48:41;36.00;59.00
3300;DHT22;1662;49.310;8.134;2023-07-09T15:51:09;35.90;59.10
3300;DHT22;1662;49.310;8.134;2023-07-09T15:53:35;35.90;59.40
3300;DHT22;1662;49.310;8.134;2023-07-09T15:56:13;35.80;59.40
3300;DHT22;1662;49.310;8.134;2023-07-09T15:58:43;35.60;59.10
3300;DHT22;1662;49.310;8.134;2023-07-09T16:01:14;35.60;59.40
3300;DHT22;1662;49.310;8.134;2023-07-09T16:03:47;35.50;59.10
3300;DHT22;1662;49.310;8.134;2023-07-09T16:06:14;35.40;59.50
3300;DHT22;1662;49.310;8.134;2023-07-09T16:08:39;35.40;59.70
3300;DHT22;1662;49.310;8.134;2023-07-09T16:13:40;35.30;59.60
3300;DHT22;1662;49.310;8.134;2023-07-09T16:16:12;35.30;60.30
3300;DHT22;1662;49.310;8.134;2023-07-09T16:18:38;35.30;59.80
3300;DHT22;1662;49.310;8.134;2023-07-09T16:21:03;35.40;59.70
3300;DHT22;1662;49.310;8.134;2023-07-09T16:23:29;35.50;60.30
3300;DHT22;1662;49.310;8.134;2023-07-09T16:25:55;35.40;59.80
3300;DHT22;1662;49.310;8.134;2023-07-09T16:28:20;35.50;59.80
3300;DHT22;1662;49.310;8.134;2023-07-09T16:30:47;35.40;60.80
3300;DHT22;1662;49.310;8.134;2023-07-09T16:33:14;35.40;67.30
3300;DHT22;1662;49.310;8.134;2023-07-09T16:35:40;35.30;70.00
3300;DHT22;1662;49.310;8.134;2023-07-09T16:38:10;35.30;69.10
3300;DHT22;1662;49.310;8.134;2023-07-09T16:40:36;35.40;67.40
3300;DHT22;1662;49.310;8.134;2023-07-09T16:43:16;35.40;70.50
3300;DHT22;1662;49.310;8.134;2023-07-09T16:45:42;35.40;68.20
3300;DHT22;1662;49.310;8.134;2023-07-09T16:48:21;35.40;64.30
3300;DHT22;1662;49.310;8.134;2023-07-09T16:50:51;35.50;64.80
3300;DHT22;1662;49.310;8.134;2023-07-09T16:53:19;35.40;64.60
3300;DHT22;1662;49.310;8.134;2023-07-09T16:55:48;35.40;64.90
3300;DHT22;1662;49.310;8.134;2023-07-09T16:58:29;35.30;63.70
3300;DHT22;1662;49.310;8.134;2023-07-09T17:00:56;35.20;63.80
3300;DHT22;1662;49.310;8.134;2023-07-09T17:03:27;35.10;64.60